createdAt,value
2023-08-13T00:01:04.159Z,101808.78
2023-08-13T00:03:30.975Z,101808.13
2023-08-13T00:05:57.852Z,101816.84
2023-08-13T00:08:24.606Z,101804.44
2023-08-13T00:10:51.217Z,101807.28
2023-08-13T00:13:17.921Z,101812.31
2023-08-13T00:18:11.763Z,101816.19
2023-08-13T00:20:38.657Z,101803.75
2023-08-13T00:23:05.389Z,101814.66
2023-08-13T00:25:32.025Z,101808.59
2023-08-13T00:28:01.127Z,101812.13
2023-08-13T00:30:27.907Z,101804.09
2023-08-13T00:32:54.652Z,101807.78
2023-08-13T00:35:21.327Z,101805.25
2023-08-13T00:37:48.044Z,101818.50
2023-08-13T00:40:14.823Z,101807.25
2023-08-13T00:42:41.456Z,101806.75
2023-08-13T00:45:08.485Z,101814.81
2023-08-13T00:47:36.127Z,101805.25
2023-08-13T00:50:04.968Z,101806.44
2023-08-13T00:52:32.210Z,101803.56
2023-08-13T00:54:59.230Z,101809.94
2023-08-13T00:57:26.559Z,101796.72
2023-08-13T00:59:54.060Z,101797.88
2023-08-13T01:02:22.347Z,101799.56
2023-08-13T01:04:49.384Z,101798.72
2023-08-13T01:07:25.321Z,101795.19
2023-08-13T01:10:14.734Z,101803.25
2023-08-13T01:12:53.349Z,101798.03
2023-08-13T01:15:40.729Z,101796.53
2023-08-13T01:18:08.667Z,101794.69
2023-08-13T01:20:40.826Z,101788.63
2023-08-13T01:23:07.535Z,101796.84
2023-08-13T01:25:34.899Z,101793.31
2023-08-13T01:28:19.562Z,101797.00
2023-08-13T01:30:50.317Z,101787.94
2023-08-13T01:33:30.480Z,101787.94
2023-08-13T01:36:02.519Z,101777.56
2023-08-13T01:38:31.577Z,101782.94
2023-08-13T01:41:00.866Z,101782.25
2023-08-13T01:43:27.465Z,101786.63
2023-08-13T01:45:54.215Z,101781.41
2023-08-13T01:48:20.833Z,101780.56
2023-08-13T01:50:47.400Z,101779.91
2023-08-13T01:53:13.946Z,101784.09
2023-08-13T01:55:40.541Z,101781.41
2023-08-13T01:58:08.982Z,101786.09
2023-08-13T02:00:35.570Z,101776.53
2023-08-13T02:03:02.188Z,101786.44
2023-08-13T02:05:28.923Z,101787.59
2023-08-13T02:07:55.530Z,101785.75
2023-08-13T02:10:22.097Z,101776.88
2023-08-13T02:12:48.745Z,101774.34
2023-08-13T02:15:15.438Z,101774.34
2023-08-13T02:17:42.208Z,101791.47
2023-08-13T02:20:12.398Z,101789.28
2023-08-13T02:22:39.020Z,101784.75
2023-08-13T02:25:06.113Z,101789.13
2023-08-13T02:27:32.730Z,101782.22
2023-08-13T02:29:59.353Z,101789.44
2023-08-13T02:32:26.042Z,101792.13
2023-08-13T02:34:52.633Z,101789.59
2023-08-13T02:37:19.277Z,101785.56
2023-08-13T02:39:45.848Z,101783.41
2023-08-13T02:42:12.719Z,101785.41
2023-08-13T02:44:39.641Z,101784.38
2023-08-13T02:47:06.224Z,101783.72
2023-08-13T02:49:32.798Z,101786.41
2023-08-13T02:51:59.363Z,101776.84
2023-08-13T02:54:25.983Z,101777.69
2023-08-13T02:56:52.599Z,101780.53
2023-08-13T02:59:19.233Z,101783.22
2023-08-13T03:01:46.992Z,101784.38
2023-08-13T03:04:14.121Z,101770.28
2023-08-13T03:06:40.861Z,101772.13
2023-08-13T03:09:07.526Z,101778.34
2023-08-13T03:11:34.163Z,101786.56
2023-08-13T03:14:00.722Z,101787.38
2023-08-13T03:16:27.333Z,101786.72
2023-08-13T03:18:53.966Z,101789.41
2023-08-13T03:21:20.933Z,101788.72
2023-08-13T03:23:47.739Z,101787.72
2023-08-13T03:26:14.400Z,101795.75
2023-08-13T03:28:41.044Z,101785.03
2023-08-13T03:31:07.718Z,101786.72
2023-08-13T03:33:34.317Z,101788.72
2023-08-13T03:36:00.940Z,101786.50
2023-08-13T03:38:27.518Z,101792.03
2023-08-13T03:40:55.671Z,101793.72
2023-08-13T03:43:22.638Z,101799.41
2023-08-13T03:45:49.277Z,101797.41
2023-08-13T03:48:17.021Z,101791.19
2023-08-13T03:50:44.422Z,101790.50
2023-08-13T03:53:11.696Z,101789.00
2023-08-13T03:55:39.209Z,101803.25
2023-08-13T03:58:05.992Z,101800.03
2023-08-13T04:00:32.787Z,101798.69
2023-08-13T04:03:03.345Z,101796.88
2023-08-13T04:05:35.614Z,101796.03
2023-08-13T04:08:02.586Z,101794.34
2023-08-13T04:10:29.492Z,101794.50
2023-08-13T04:13:01.377Z,101794.81
2023-08-13T04:15:30.842Z,101797.34
2023-08-13T04:17:57.562Z,101803.69
2023-08-13T04:20:24.226Z,101793.97
2023-08-13T04:22:50.809Z,101800.03
2023-08-13T04:25:17.502Z,101800.03
2023-08-13T04:27:44.098Z,101801.03
2023-08-13T04:30:11.052Z,101799.34
2023-08-13T04:32:41.728Z,101789.59
2023-08-13T04:35:08.602Z,101793.28
2023-08-13T04:37:35.207Z,101800.50
2023-08-13T04:40:01.950Z,101799.66
2023-08-13T04:42:29.660Z,101789.13
2023-08-13T04:44:56.313Z,101795.47
2023-08-13T04:47:22.905Z,101804.53
2023-08-13T04:49:49.503Z,101801.00
2023-08-13T04:52:16.329Z,101795.63
2023-08-13T04:54:44.211Z,101805.50
2023-08-13T04:57:10.920Z,101799.31
2023-08-13T04:59:37.497Z,101794.41
2023-08-13T05:02:04.608Z,101803.31
2023-08-13T05:04:31.339Z,101799.09
2023-08-13T05:06:58.342Z,101792.91
2023-08-13T05:09:24.944Z,101790.38
2023-08-13T05:11:51.622Z,101792.75
2023-08-13T05:14:18.289Z,101795.25
2023-08-13T05:16:45.043Z,101799.63
2023-08-13T05:19:11.629Z,101802.84
2023-08-13T05:21:38.842Z,101802.34
2023-08-13T05:24:06.027Z,101800.50
2023-08-13T05:26:32.590Z,101808.72
2023-08-13T05:28:59.165Z,101806.69
2023-08-13T05:31:25.842Z,101804.69
2023-08-13T05:33:54.982Z,101805.53
2023-08-13T05:36:21.658Z,101809.59
2023-08-13T05:38:48.281Z,101817.47
2023-08-13T05:41:14.890Z,101803.22
2023-08-13T05:43:41.842Z,101811.13
2023-08-13T05:46:09.052Z,101811.78
2023-08-13T05:48:35.722Z,101803.91
2023-08-13T05:51:02.361Z,101815.50
2023-08-13T05:53:29.026Z,101806.94
2023-08-13T05:56:00.564Z,101816.03
2023-08-13T05:58:27.223Z,101813.53
2023-08-13T06:00:54.349Z,101809.38
2023-08-13T06:03:21.195Z,101810.06
2023-08-13T06:05:48.725Z,101810.75
2023-08-13T06:08:15.345Z,101808.88
2023-08-13T06:10:41.976Z,101813.75
2023-08-13T06:13:08.634Z,101813.94
2023-08-13T06:15:35.243Z,101811.75
2023-08-13T06:18:01.944Z,101819.66
2023-08-13T06:20:29.288Z,101825.22
2023-08-13T06:22:55.940Z,101827.56
2023-08-13T06:25:22.653Z,101828.22
2023-08-13T06:27:49.252Z,101820.84
2023-08-13T06:30:15.929Z,101825.72
2023-08-13T06:32:42.745Z,101826.41
2023-08-13T06:35:09.790Z,101829.56
2023-08-13T06:37:44.075Z,101826.41
2023-08-13T06:40:13.928Z,101823.75
2023-08-13T06:42:40.489Z,101832.97
2023-08-13T06:45:07.756Z,101820.59
2023-08-13T06:47:34.374Z,101820.06
2023-08-13T06:50:00.972Z,101820.56
2023-08-13T06:52:27.523Z,101818.22
2023-08-13T06:54:54.135Z,101816.53
2023-08-13T06:57:20.881Z,101819.38
2023-08-13T06:59:47.524Z,101823.44
2023-08-13T07:02:14.344Z,101818.19
2023-08-13T07:04:41.157Z,101820.56
2023-08-13T07:07:07.770Z,101822.91
2023-08-13T07:09:35.153Z,101822.72
2023-08-13T07:12:02.120Z,101833.63
2023-08-13T07:14:28.753Z,101841.03
2023-08-13T07:16:55.393Z,101825.19
2023-08-13T07:19:22.240Z,101827.56
2023-08-13T07:21:48.863Z,101828.06
2023-08-13T07:24:15.486Z,101828.56
2023-08-13T07:26:42.128Z,101822.69
2023-08-13T07:29:08.946Z,101829.06
2023-08-13T07:31:38.604Z,101831.03
2023-08-13T07:34:05.872Z,101822.63
2023-08-13T07:36:32.764Z,101818.25
2023-08-13T07:38:59.449Z,101828.28
2023-08-13T07:41:26.066Z,101829.75
2023-08-13T07:43:52.770Z,101831.94
2023-08-13T07:46:19.357Z,101827.88
2023-08-13T07:48:46.676Z,101834.56
2023-08-13T07:51:13.489Z,101824.44
2023-08-13T07:53:40.094Z,101819.53
2023-08-13T07:56:06.718Z,101825.44
2023-08-13T07:58:33.394Z,101819.19
2023-08-13T08:01:00.070Z,101831.16
2023-08-13T08:03:26.747Z,101832.81
2023-08-13T08:05:54.202Z,101827.78
2023-08-13T08:08:21.003Z,101827.78
2023-08-13T08:10:47.607Z,101832.81
2023-08-13T08:13:14.290Z,101822.22
2023-08-13T08:15:41.053Z,101824.91
2023-08-13T08:18:07.761Z,101829.28
2023-08-13T08:20:34.486Z,101830.59
2023-08-13T08:23:01.408Z,101839.50
2023-08-13T08:25:29.006Z,101832.09
2023-08-13T08:27:55.698Z,101835.94
2023-08-13T08:30:22.433Z,101832.69
2023-08-13T08:32:49.554Z,101831.84
2023-08-13T08:35:16.362Z,101834.16
2023-08-13T08:37:42.942Z,101838.22
2023-08-13T08:40:10.009Z,101828.84
2023-08-13T08:42:37.676Z,101828.84
2023-08-13T08:45:06.301Z,101827.75
2023-08-13T08:47:35.025Z,101826.16
2023-08-13T08:50:05.361Z,101822.44
2023-08-13T08:52:35.575Z,101820.19
2023-08-13T08:55:04.360Z,101831.38
2023-08-13T08:57:31.055Z,101836.75
2023-08-13T08:59:57.684Z,101834.06
2023-08-13T09:02:24.362Z,101825.13
2023-08-13T09:04:51.832Z,101825.66
2023-08-13T09:07:18.500Z,101815.59
2023-08-13T09:09:49.957Z,101819.09
2023-08-13T09:12:16.986Z,101831.38
2023-08-13T09:14:43.779Z,101831.75
2023-08-13T09:17:13.630Z,101824.22
2023-08-13T09:19:40.677Z,101829.13
2023-08-13T09:22:08.282Z,101831.75
2023-08-13T09:24:39.412Z,101824.06
2023-08-13T09:27:07.550Z,101826.94
2023-08-13T09:29:34.686Z,101817.41
2023-08-13T09:32:02.790Z,101819.97
2023-08-13T09:34:31.289Z,101819.69
2023-08-13T09:36:59.001Z,101818.34
2023-08-13T09:39:27.499Z,101817.03
2023-08-13T09:41:54.842Z,101813.66
2023-08-13T09:44:25.424Z,101811.16
2023-08-13T09:46:59.242Z,101812.53
2023-08-13T09:49:30.140Z,101808.94
2023-08-13T09:52:02.942Z,101802.47
2023-08-13T09:54:35.278Z,101805.72
2023-08-13T09:57:08.667Z,101805.41
2023-08-13T09:59:37.290Z,101800.69
2023-08-13T10:02:12.851Z,101799.34
2023-08-13T10:04:40.000Z,101802.13
2023-08-13T10:07:07.607Z,101802.63
2023-08-13T10:09:35.478Z,101801.59
2023-08-13T10:12:03.140Z,101795.72
2023-08-13T10:14:31.219Z,101797.91
2023-08-13T10:17:02.355Z,101793.31
2023-08-13T10:19:35.461Z,101797.34
2023-08-13T10:22:02.698Z,101797.50
2023-08-13T10:24:30.683Z,101793.81
2023-08-13T10:27:00.180Z,101792.59
2023-08-13T10:29:41.645Z,101791.59
2023-08-13T10:32:16.671Z,101797.50
2023-08-13T10:34:51.643Z,101793.13
2023-08-13T10:37:23.505Z,101790.81
2023-08-13T10:39:56.156Z,101790.34
2023-08-13T10:42:28.577Z,101789.50
2023-08-13T10:45:05.954Z,101788.84
2023-08-13T10:47:51.421Z,101784.94
2023-08-13T10:50:33.922Z,101781.06
2023-08-13T10:53:06.688Z,101794.34
2023-08-13T10:55:39.333Z,101782.75
2023-08-13T10:58:06.902Z,101775.50
2023-08-13T11:00:43.840Z,101779.66
2023-08-13T11:03:24.566Z,101789.44
2023-08-13T11:05:52.737Z,101781.53
2023-08-13T11:08:30.738Z,101776.53
2023-08-13T11:11:08.200Z,101781.91
2023-08-13T11:13:34.893Z,101777.53
2023-08-13T11:16:01.508Z,101770.66
2023-08-13T11:18:28.090Z,101775.88
2023-08-13T11:20:55.686Z,101786.81
2023-08-13T11:23:23.202Z,101786.31
2023-08-13T11:25:50.581Z,101786.16
2023-08-13T11:28:24.781Z,101786.97
2023-08-13T11:30:53.108Z,101788.66
2023-08-13T11:33:20.558Z,101788.66
2023-08-13T11:35:47.994Z,101788.00
2023-08-13T11:38:16.731Z,101775.53
2023-08-13T11:40:46.316Z,101775.63
2023-08-13T11:43:14.303Z,101781.09
2023-08-13T11:45:41.362Z,101776.56
2023-08-13T11:48:15.499Z,101783.44
2023-08-13T11:50:47.978Z,101780.59
2023-08-13T11:53:16.497Z,101783.09
2023-08-13T11:55:46.132Z,101775.88
2023-08-13T11:58:17.898Z,101778.84
2023-08-13T12:00:45.376Z,101777.16
2023-08-13T12:03:13.775Z,101782.38
2023-08-13T12:05:40.867Z,101782.19
2023-08-13T12:08:10.833Z,101779.66
2023-08-13T12:10:39.826Z,101785.19
2023-08-13T12:13:07.052Z,101782.50
2023-08-13T12:15:34.083Z,101786.22
2023-08-13T12:18:01.776Z,101780.47
2023-08-13T12:20:29.275Z,101772.91
2023-08-13T12:22:56.202Z,101772.38
2023-08-13T12:25:22.990Z,101768.00
2023-08-13T12:27:53.002Z,101777.13
2023-08-13T12:30:20.515Z,101778.44
2023-08-13T12:32:47.264Z,101771.19
2023-08-13T12:35:14.281Z,101771.38
2023-08-13T12:37:41.473Z,101780.91
2023-08-13T12:40:11.757Z,101772.22
2023-08-13T12:42:39.265Z,101770.16
2023-08-13T12:45:07.632Z,101771.88
2023-08-13T12:47:35.759Z,101764.09
2023-08-13T12:50:05.833Z,101774.69
2023-08-13T12:52:32.468Z,101776.53
2023-08-13T12:54:59.091Z,101773.53
2023-08-13T12:57:25.701Z,101775.22
2023-08-13T12:59:52.672Z,101767.50
2023-08-13T13:02:19.874Z,101768.63
2023-08-13T13:04:46.713Z,101769.66
2023-08-13T13:07:13.350Z,101773.19
2023-08-13T13:09:39.934Z,101769.00
2023-08-13T13:12:06.603Z,101763.34
2023-08-13T13:14:33.232Z,101758.47
2023-08-13T13:16:59.922Z,101759.50
2023-08-13T13:19:26.438Z,101767.94
2023-08-13T13:21:52.866Z,101763.56
2023-08-13T13:24:19.335Z,101757.16
2023-08-13T13:26:45.845Z,101759.19
2023-08-13T13:29:12.273Z,101764.22
2023-08-13T13:31:38.778Z,101765.25
2023-08-13T13:34:05.270Z,101760.88
2023-08-13T13:36:31.718Z,101759.69
2023-08-13T13:38:58.164Z,101757.81
2023-08-13T13:41:25.331Z,101762.19
2023-08-13T13:43:51.845Z,101749.75
2023-08-13T13:46:19.033Z,101753.44
2023-08-13T13:48:45.538Z,101748.25
2023-08-13T13:51:11.978Z,101752.13
2023-08-13T13:53:38.526Z,101745.72
2023-08-13T13:56:05.012Z,101740.16
2023-08-13T13:58:31.484Z,101747.22
2023-08-13T14:00:57.958Z,101752.63
2023-08-13T14:03:24.675Z,101748.91
2023-08-13T14:05:53.114Z,101746.22
2023-08-13T14:08:19.732Z,101737.47
2023-08-13T14:10:46.183Z,101736.81
2023-08-13T14:13:12.632Z,101733.47
2023-08-13T14:15:39.161Z,101747.97
2023-08-13T14:18:06.524Z,101766.16
2023-08-13T14:20:33.074Z,101767.19
2023-08-13T14:22:59.636Z,101763.66
2023-08-13T14:25:26.253Z,101771.72
2023-08-13T14:27:52.745Z,101769.03
2023-08-13T14:30:19.276Z,101773.59
2023-08-13T14:32:45.881Z,101775.06
2023-08-13T14:35:12.463Z,101772.22
2023-08-13T14:37:38.958Z,101761.63
2023-08-13T14:40:05.655Z,101765.97
2023-08-13T14:42:32.100Z,101759.59
2023-08-13T14:44:58.542Z,101761.22
2023-08-13T14:47:25.064Z,101759.19
2023-08-13T14:49:51.515Z,101765.59
2023-08-13T14:52:18.163Z,101755.66
2023-08-13T14:54:44.904Z,101757.53
2023-08-13T14:57:11.336Z,101758.34
2023-08-13T14:59:37.794Z,101753.81
2023-08-13T15:02:05.648Z,101745.72
2023-08-13T15:04:32.269Z,101746.75
2023-08-13T15:06:58.728Z,101745.06
2023-08-13T15:09:25.253Z,101743.03
2023-08-13T15:11:52.239Z,101742.84
2023-08-13T15:14:18.855Z,101739.50
2023-08-13T15:16:45.351Z,101735.13
2023-08-13T15:19:11.809Z,101742.75
2023-08-13T15:21:38.246Z,101741.75
2023-08-13T15:24:04.832Z,101747.75
2023-08-13T15:26:31.334Z,101749.81
2023-08-13T15:28:58.369Z,101753.97
2023-08-13T15:31:24.890Z,101746.94
2023-08-13T15:33:51.360Z,101743.41
2023-08-13T15:36:18.011Z,101744.25
2023-08-13T15:38:44.580Z,101743.59
2023-08-13T15:41:11.117Z,101752.34
2023-08-13T15:43:38.423Z,101744.88
2023-08-13T15:46:04.999Z,101749.66
2023-08-13T15:48:31.540Z,101745.06
2023-08-13T15:50:58.127Z,101744.25
2023-08-13T15:53:24.593Z,101738.03
2023-08-13T15:55:51.210Z,101746.75
2023-08-13T15:58:18.348Z,101738.88
2023-08-13T16:00:45.076Z,101742.38
2023-08-13T16:03:11.637Z,101731.59
2023-08-13T16:05:38.338Z,101739.69
2023-08-13T16:08:07.563Z,101737.81
2023-08-13T16:10:36.250Z,101746.75
2023-08-13T16:13:04.364Z,101743.88
2023-08-13T16:15:31.066Z,101742.03
2023-08-13T16:17:57.578Z,101737.47
2023-08-13T16:20:24.130Z,101741.84
2023-08-13T16:22:50.642Z,101743.50
2023-08-13T16:25:18.977Z,101731.91
2023-08-13T16:27:45.451Z,101730.22
2023-08-13T16:30:12.164Z,101728.38
2023-08-13T16:32:39.223Z,101723.81
2023-08-13T16:35:07.474Z,101726.50
2023-08-13T16:37:34.408Z,101737.28
2023-08-13T16:40:01.134Z,101734.78
2023-08-13T16:42:30.258Z,101736.44
2023-08-13T16:44:58.582Z,101739.97
2023-08-13T16:47:25.100Z,101732.75
2023-08-13T16:50:01.277Z,101731.91
2023-08-13T16:52:31.540Z,101736.28
2023-08-13T16:54:57.974Z,101738.97
2023-08-13T16:57:24.518Z,101733.59
2023-08-13T16:59:51.011Z,101735.44
2023-08-13T17:02:17.505Z,101741.84
2023-08-13T17:04:43.970Z,101735.63
2023-08-13T17:07:10.448Z,101732.09
2023-08-13T17:09:36.952Z,101732.91
2023-08-13T17:12:03.502Z,101735.78
2023-08-13T17:14:30.887Z,101733.09
2023-08-13T17:16:58.594Z,101737.66
2023-08-13T17:19:25.987Z,101747.59
2023-08-13T17:21:52.434Z,101747.59
2023-08-13T17:24:18.899Z,101743.22
2023-08-13T17:26:45.373Z,101742.38
2023-08-13T17:29:11.841Z,101751.50
2023-08-13T17:31:38.385Z,101745.28
2023-08-13T17:34:05.048Z,101740.06
2023-08-13T17:36:31.548Z,101741.91
2023-08-13T17:38:58.919Z,101738.56
2023-08-13T17:41:25.434Z,101744.97
2023-08-13T17:43:51.947Z,101734.19
2023-08-13T17:46:18.528Z,101743.47
2023-08-13T17:48:45.013Z,101746.16
2023-08-13T17:51:11.520Z,101747.00
2023-08-13T17:53:38.086Z,101740.13
2023-08-13T17:56:04.689Z,101748.19
2023-08-13T17:58:37.722Z,101749.22
2023-08-13T18:01:13.793Z,101733.06
2023-08-13T18:03:40.431Z,101735.97
2023-08-13T18:06:08.919Z,101736.13
2023-08-13T18:08:35.564Z,101748.75
2023-08-13T18:11:02.031Z,101744.38
2023-08-13T18:13:28.511Z,101745.41
2023-08-13T18:15:55.979Z,101753.47
2023-08-13T18:18:22.530Z,101748.09
2023-08-13T18:20:49.046Z,101746.41
2023-08-13T18:23:15.736Z,101741.38
2023-08-13T18:25:42.195Z,101744.06
2023-08-13T18:28:08.713Z,101736.19
2023-08-13T18:30:35.185Z,101749.63
2023-08-13T18:33:01.689Z,101745.44
2023-08-13T18:35:28.504Z,101748.34
2023-08-13T18:37:55.042Z,101754.56
2023-08-13T18:40:21.551Z,101751.03
2023-08-13T18:42:48.096Z,101755.75
2023-08-13T18:45:14.521Z,101754.09
2023-08-13T18:47:41.109Z,101762.34
2023-08-13T18:50:08.001Z,101758.81
2023-08-13T18:52:34.495Z,101761.66
2023-08-13T18:55:00.981Z,101764.34
2023-08-13T18:57:27.470Z,101767.22
2023-08-13T18:59:53.972Z,101766.53
2023-08-13T19:02:20.696Z,101768.38
2023-08-13T19:04:47.334Z,101778.31
2023-08-13T19:07:15.038Z,101774.16
2023-08-13T19:09:41.548Z,101776.00
2023-08-13T19:12:08.220Z,101775.16
2023-08-13T19:14:34.970Z,101784.25
2023-08-13T19:17:01.417Z,101788.13
2023-08-13T19:19:27.961Z,101780.22
2023-08-13T19:21:54.432Z,101779.38
2023-08-13T19:24:20.882Z,101784.09
2023-08-13T19:26:47.360Z,101784.28
2023-08-13T19:29:13.862Z,101783.44
2023-08-13T19:31:40.647Z,101780.91
2023-08-13T19:34:07.124Z,101782.97
2023-08-13T19:36:33.582Z,101786.50
2023-08-13T19:39:00.033Z,101783.31
2023-08-13T19:41:28.010Z,101788.88
2023-08-13T19:43:54.592Z,101789.06
2023-08-13T19:46:21.123Z,101786.34
2023-08-13T19:48:47.628Z,101779.47
2023-08-13T19:51:14.066Z,101791.78
2023-08-13T19:53:40.511Z,101784.59
2023-08-13T19:56:06.959Z,101790.69
2023-08-13T19:58:33.417Z,101793.03
2023-08-13T20:01:02.692Z,101791.91
2023-08-13T20:03:29.398Z,101793.44
2023-08-13T20:05:55.982Z,101790.78
2023-08-13T20:08:25.167Z,101788.56
2023-08-13T20:10:54.481Z,101788.41
2023-08-13T20:13:21.199Z,101788.09
2023-08-13T20:15:48.527Z,101795.00
2023-08-13T20:18:15.066Z,101790.66
2023-08-13T20:20:41.900Z,101789.31
2023-08-13T20:23:08.384Z,101788.16
2023-08-13T20:25:35.193Z,101797.72
2023-08-13T20:28:01.674Z,101794.06
2023-08-13T20:30:28.200Z,101796.22
2023-08-13T20:32:54.856Z,101788.16
2023-08-13T20:35:21.377Z,101788.53
2023-08-13T20:37:47.844Z,101790.81
2023-08-13T20:40:14.778Z,101784.78
2023-08-13T20:42:42.485Z,101792.16
2023-08-13T20:45:11.148Z,101788.16
2023-08-13T20:47:38.215Z,101791.84
2023-08-13T20:50:07.415Z,101797.38
2023-08-13T20:52:43.112Z,101802.06
2023-08-13T20:55:10.256Z,101795.19
2023-08-13T20:57:36.714Z,101801.22
2023-08-13T21:00:05.271Z,101803.25
2023-08-13T21:02:31.788Z,101803.25
2023-08-13T21:04:58.289Z,101802.91
2023-08-13T21:07:24.715Z,101808.78
2023-08-13T21:09:51.162Z,101807.41
2023-08-13T21:12:17.803Z,101794.69
2023-08-13T21:14:44.517Z,101800.53
2023-08-13T21:17:11.000Z,101795.31
2023-08-13T21:19:37.471Z,101806.22
2023-08-13T21:22:04.016Z,101795.16
2023-08-13T21:24:30.492Z,101801.38
2023-08-13T21:26:57.039Z,101795.81
2023-08-13T21:29:23.596Z,101792.97
2023-08-13T21:31:50.851Z,101795.66
2023-08-13T21:34:17.313Z,101796.50
2023-08-13T21:36:43.944Z,101792.13
2023-08-13T21:39:10.471Z,101792.47
2023-08-13T21:41:36.944Z,101791.97
2023-08-13T21:44:03.592Z,101803.34
2023-08-13T21:46:30.079Z,101789.28
2023-08-13T21:48:56.615Z,101789.75
2023-08-13T21:51:23.066Z,101791.44
2023-08-13T21:53:49.548Z,101790.06
2023-08-13T21:56:16.473Z,101791.06
2023-08-13T21:58:44.530Z,101786.03
2023-08-13T22:01:11.096Z,101790.75
2023-08-13T22:03:37.692Z,101798.78
2023-08-13T22:06:04.476Z,101802.28
2023-08-13T22:08:30.903Z,101805.66
2023-08-13T22:10:57.345Z,101807.19
2023-08-13T22:13:23.808Z,101805.34
2023-08-13T22:15:50.323Z,101808.84
2023-08-13T22:18:17.213Z,101810.69
2023-08-13T22:20:44.089Z,101807.34
2023-08-13T22:23:10.529Z,101800.75
2023-08-13T22:25:36.977Z,101807.13
2023-08-13T22:28:03.501Z,101808.28
2023-08-13T22:30:29.971Z,101809.75
2023-08-13T22:32:56.584Z,101819.84
2023-08-13T22:35:23.076Z,101815.47
2023-08-13T22:37:49.533Z,101819.47
2023-08-13T22:40:16.025Z,101817.94
2023-08-13T22:42:42.481Z,101814.59
2023-08-13T22:45:09.245Z,101826.16
2023-08-13T22:47:35.788Z,101835.72
2023-08-13T22:50:02.262Z,101832.03
2023-08-13T22:52:28.854Z,101823.00
2023-08-13T22:54:55.385Z,101828.38
2023-08-13T22:57:21.889Z,101825.84
2023-08-13T22:59:48.402Z,101826.16
2023-08-13T23:02:15.111Z,101824.81
2023-08-13T23:04:42.511Z,101821.91
2023-08-13T23:07:08.993Z,101815.34
2023-08-13T23:09:35.450Z,101819.53
2023-08-13T23:12:01.938Z,101816.47
2023-08-13T23:14:28.417Z,101813.25
2023-08-13T23:16:55.569Z,101813.09
2023-08-13T23:19:22.870Z,101811.25
2023-08-13T23:21:49.386Z,101816.47
2023-08-13T23:24:15.919Z,101809.28
2023-08-13T23:26:42.394Z,101811.25
2023-08-13T23:29:10.467Z,101805.56
2023-08-13T23:31:37.064Z,101812.59
2023-08-13T23:34:03.627Z,101808.25
2023-08-13T23:36:30.085Z,101816.97
2023-08-13T23:38:56.536Z,101815.13
2023-08-13T23:41:23.000Z,101814.94
2023-08-13T23:43:49.489Z,101813.25
2023-08-13T23:46:15.939Z,101820.66
2023-08-13T23:48:42.431Z,101820.44
2023-08-13T23:51:08.977Z,101816.06
2023-08-13T23:53:35.473Z,101816.22
2023-08-13T23:56:02.552Z,101817.22
2023-08-13T23:58:28.990Z,101808.34
